sensor_id;sensor_type;location;lat;lon;timestamp;P1;durP1;ratioP1;P2;durP2;ratioP2
18574;SDS011;9417;16.484;102.872;2023-03-26T00:00:13;41.55;;;32.47;;
18574;SDS011;9417;16.484;102.872;2023-03-26T00:02:20;43.33;;;30.58;;
18574;SDS011;9417;16.484;102.872;2023-03-26T00:04:28;50.38;;;34.40;;
18574;SDS011;9417;16.484;102.872;2023-03-26T00:06:36;42.38;;;32.30;;
18574;SDS011;9417;16.484;102.872;2023-03-26T00:08:44;43.75;;;32.10;;
18574;SDS011;9417;16.484;102.872;2023-03-26T00:10:51;47.30;;;33.25;;
18574;SDS011;9417;16.484;102.872;2023-03-26T00:13:00;46.35;;;31.98;;
18574;SDS011;9417;16.484;102.872;2023-03-26T00:15:08;40.50;;;32.97;;
18574;SDS011;9417;16.484;102.872;2023-03-26T00:17:15;50.05;;;35.47;;
18574;SDS011;9417;16.484;102.872;2023-03-26T00:19:23;53.08;;;36.80;;
18574;SDS011;9417;16.484;102.872;2023-03-26T00:21:30;50.33;;;36.83;;
18574;SDS011;9417;16.484;102.872;2023-03-26T00:23:38;56.15;;;38.92;;
18574;SDS011;9417;16.484;102.872;2023-03-26T00:25:45;50.70;;;37.05;;
18574;SDS011;9417;16.484;102.872;2023-03-26T00:27:53;55.30;;;37.33;;
18574;SDS011;9417;16.484;102.872;2023-03-26T00:30:03;48.92;;;36.33;;
18574;SDS011;9417;16.484;102.872;2023-03-26T00:32:10;49.00;;;35.40;;
18574;SDS011;9417;16.484;102.872;2023-03-26T00:34:18;46.70;;;33.85;;
18574;SDS011;9417;16.484;102.872;2023-03-26T00:36:25;44.67;;;32.75;;
18574;SDS011;9417;16.484;102.872;2023-03-26T00:38:32;47.13;;;33.70;;
18574;SDS011;9417;16.484;102.872;2023-03-26T00:40:41;43.47;;;31.30;;
18574;SDS011;9417;16.484;102.872;2023-03-26T00:42:50;44.08;;;31.27;;
18574;SDS011;9417;16.484;102.872;2023-03-26T00:44:57;45.72;;;32.40;;
18574;SDS011;9417;16.484;102.872;2023-03-26T00:47:06;42.13;;;31.90;;
18574;SDS011;9417;16.484;102.872;2023-03-26T00:49:13;41.92;;;31.30;;
18574;SDS011;9417;16.484;102.872;2023-03-26T00:51:21;43.30;;;31.27;;
18574;SDS011;9417;16.484;102.872;2023-03-26T00:53:28;43.63;;;33.08;;
18574;SDS011;9417;16.484;102.872;2023-03-26T00:55:36;45.58;;;31.60;;
18574;SDS011;9417;16.484;102.872;2023-03-26T00:57:43;43.95;;;31.90;;
18574;SDS011;9417;16.484;102.872;2023-03-26T00:59:50;41.67;;;31.67;;
18574;SDS011;9417;16.484;102.872;2023-03-26T01:01:57;41.35;;;30.35;;
18574;SDS011;9417;16.484;102.872;2023-03-26T01:04:24;38.10;;;30.30;;
18574;SDS011;9417;16.484;102.872;2023-03-26T01:06:33;46.75;;;31.90;;
18574;SDS011;9417;16.484;102.872;2023-03-26T01:08:46;38.00;;;28.88;;
18574;SDS011;9417;16.484;102.872;2023-03-26T01:10:55;40.47;;;30.13;;
18574;SDS011;9417;16.484;102.872;2023-03-26T01:13:08;39.63;;;30.13;;
18574;SDS011;9417;16.484;102.872;2023-03-26T01:15:15;38.72;;;30.25;;
18574;SDS011;9417;16.484;102.872;2023-03-26T01:17:23;44.05;;;31.17;;
18574;SDS011;9417;16.484;102.872;2023-03-26T01:19:39;40.30;;;29.48;;
18574;SDS011;9417;16.484;102.872;2023-03-26T01:21:53;42.58;;;29.27;;
18574;SDS011;9417;16.484;102.872;2023-03-26T01:24:02;42.83;;;29.17;;
18574;SDS011;9417;16.484;102.872;2023-03-26T01:26:17;71.97;;;30.63;;
18574;SDS011;9417;16.484;102.872;2023-03-26T01:28:36;48.45;;;28.42;;
18574;SDS011;9417;16.484;102.872;2023-03-26T01:30:46;37.42;;;29.38;;
18574;SDS011;9417;16.484;102.872;2023-03-26T01:33:01;44.90;;;29.25;;
18574;SDS011;9417;16.484;102.872;2023-03-26T01:35:19;37.40;;;27.95;;
18574;SDS011;9417;16.484;102.872;2023-03-26T01:37:36;34.72;;;26.67;;
18574;SDS011;9417;16.484;102.872;2023-03-26T01:39:54;34.63;;;27.35;;
18574;SDS011;9417;16.484;102.872;2023-03-26T01:42:09;38.78;;;28.48;;
18574;SDS011;9417;16.484;102.872;2023-03-26T01:44:22;35.08;;;27.42;;
18574;SDS011;9417;16.484;102.872;2023-03-26T01:46:36;33.78;;;27.35;;
18574;SDS011;9417;16.484;102.872;2023-03-26T01:48:44;39.25;;;26.52;;
18574;SDS011;9417;16.484;102.872;2023-03-26T01:50:52;36.20;;;25.90;;
18574;SDS011;9417;16.484;102.872;2023-03-26T01:53:01;33.75;;;25.65;;
18574;SDS011;9417;16.484;102.872;2023-03-26T01:55:10;33.40;;;24.65;;
18574;SDS011;9417;16.484;102.872;2023-03-26T01:57:19;30.55;;;24.40;;
18574;SDS011;9417;16.484;102.872;2023-03-26T01:59:41;29.55;;;22.85;;
18574;SDS011;9417;16.484;102.872;2023-03-26T02:02:18;30.77;;;21.48;;
18574;SDS011;9417;16.484;102.872;2023-03-26T02:04:32;30.45;;;21.50;;
18574;SDS011;9417;16.484;102.872;2023-03-26T02:06:45;28.08;;;20.75;;
18574;SDS011;9417;16.484;102.872;2023-03-26T02:08:56;26.60;;;19.83;;
18574;SDS011;9417;16.484;102.872;2023-03-26T02:11:08;27.77;;;19.42;;
18574;SDS011;9417;16.484;102.872;2023-03-26T02:13:18;26.85;;;19.60;;
18574;SDS011;9417;16.484;102.872;2023-03-26T02:15:26;25.35;;;19.70;;
18574;SDS011;9417;16.484;102.872;2023-03-26T02:17:33;25.10;;;19.45;;
18574;SDS011;9417;16.484;102.872;2023-03-26T02:19:43;29.90;;;22.05;;
18574;SDS011;9417;16.484;102.872;2023-03-26T02:21:50;36.97;;;25.15;;
18574;SDS011;9417;16.484;102.872;2023-03-26T02:24:05;34.58;;;24.00;;
18574;SDS011;9417;16.484;102.872;2023-03-26T02:26:15;33.08;;;24.05;;
18574;SDS011;9417;16.484;102.872;2023-03-26T02:28:32;31.17;;;22.23;;
18574;SDS011;9417;16.484;102.872;2023-03-26T02:30:40;28.30;;;19.73;;
18574;SDS011;9417;16.484;102.872;2023-03-26T02:32:49;29.45;;;18.85;;
18574;SDS011;9417;16.484;102.872;2023-03-26T02:34:58;26.40;;;19.83;;
18574;SDS011;9417;16.484;102.872;2023-03-26T02:37:05;34.97;;;21.20;;
18574;SDS011;9417;16.484;102.872;2023-03-26T02:39:16;23.15;;;17.73;;
18574;SDS011;9417;16.484;102.872;2023-03-26T02:41:34;27.65;;;18.20;;
18574;SDS011;9417;16.484;102.872;2023-03-26T02:43:46;23.92;;;17.95;;
18574;SDS011;9417;16.484;102.872;2023-03-26T02:45:56;24.27;;;18.80;;
18574;SDS011;9417;16.484;102.872;2023-03-26T02:48:31;23.48;;;17.70;;
18574;SDS011;9417;16.484;102.872;2023-03-26T02:50:54;22.42;;;18.65;;
18574;SDS011;9417;16.484;102.872;2023-03-26T02:53:27;23.38;;;18.48;;
18574;SDS011;9417;16.484;102.872;2023-03-26T02:55:55;21.50;;;17.15;;
18574;SDS011;9417;16.484;102.872;2023-03-26T02:58:11;22.27;;;18.30;;
18574;SDS011;9417;16.484;102.872;2023-03-26T03:00:20;22.45;;;18.73;;
18574;SDS011;9417;16.484;102.872;2023-03-26T03:02:28;22.65;;;17.55;;
18574;SDS011;9417;16.484;102.872;2023-03-26T03:04:52;22.80;;;17.77;;
18574;SDS011;9417;16.484;102.872;2023-03-26T03:07:07;20.83;;;16.92;;
18574;SDS011;9417;16.484;102.872;2023-03-26T03:09:17;23.10;;;17.63;;
18574;SDS011;9417;16.484;102.872;2023-03-26T03:11:43;21.02;;;17.50;;
18574;SDS011;9417;16.484;102.872;2023-03-26T03:13:52;25.92;;;16.67;;
18574;SDS011;9417;16.484;102.872;2023-03-26T03:16:00;21.77;;;17.20;;
18574;SDS011;9417;16.484;102.872;2023-03-26T03:18:08;24.27;;;16.77;;
18574;SDS011;9417;16.484;102.872;2023-03-26T03:20:16;22.95;;;17.85;;
18574;SDS011;9417;16.484;102.872;2023-03-26T03:22:24;21.60;;;17.40;;
18574;SDS011;9417;16.484;102.872;2023-03-26T03:24:31;20.60;;;15.93;;
18574;SDS011;9417;16.484;102.872;2023-03-26T03:26:39;24.55;;;17.58;;
18574;SDS011;9417;16.484;102.872;2023-03-26T04:13:24;21.80;;;18.25;;
18574;SDS011;9417;16.484;102.872;2023-03-26T04:15:51;22.67;;;17.98;;
18574;SDS011;9417;16.484;102.872;2023-03-26T04:17:59;24.73;;;18.58;;
18574;SDS011;9417;16.484;102.872;2023-03-26T04:20:08;21.95;;;18.27;;
18574;SDS011;9417;16.484;102.872;2023-03-26T04:22:20;23.15;;;18.63;;
18574;SDS011;9417;16.484;102.872;2023-03-26T04:24:42;24.45;;;19.35;;
18574;SDS011;9417;16.484;102.872;2023-03-26T04:27:02;23.73;;;19.23;;
18574;SDS011;9417;16.484;102.872;2023-03-26T04:29:16;23.13;;;18.92;;
18574;SDS011;9417;16.484;102.872;2023-03-26T04:31:27;23.13;;;19.30;;
18574;SDS011;9417;16.484;102.872;2023-03-26T04:33:36;23.98;;;19.77;;
18574;SDS011;9417;16.484;102.872;2023-03-26T04:35:44;21.02;;;18.52;;
18574;SDS011;9417;16.484;102.872;2023-03-26T04:37:52;24.85;;;20.30;;
18574;SDS011;9417;16.484;102.872;2023-03-26T04:40:05;29.98;;;21.35;;
18574;SDS011;9417;16.484;102.872;2023-03-26T04:42:25;26.20;;;20.10;;
18574;SDS011;9417;16.484;102.872;2023-03-26T04:44:45;24.85;;;20.73;;
18574;SDS011;9417;16.484;102.872;2023-03-26T04:46:55;25.00;;;19.70;;
18574;SDS011;9417;16.484;102.872;2023-03-26T04:49:17;29.58;;;19.60;;
18574;SDS011;9417;16.484;102.872;2023-03-26T04:51:25;26.27;;;19.17;;
18574;SDS011;9417;16.484;102.872;2023-03-26T04:53:37;22.77;;;20.08;;
18574;SDS011;9417;16.484;102.872;2023-03-26T04:55:58;26.98;;;20.45;;
18574;SDS011;9417;16.484;102.872;2023-03-26T04:58:30;25.40;;;19.58;;
18574;SDS011;9417;16.484;102.872;2023-03-26T05:00:39;23.45;;;19.15;;
18574;SDS011;9417;16.484;102.872;2023-03-26T05:02:47;27.00;;;19.48;;
18574;SDS011;9417;16.484;102.872;2023-03-26T05:04:56;26.00;;;19.48;;
18574;SDS011;9417;16.484;102.872;2023-03-26T05:07:06;21.70;;;18.98;;
18574;SDS011;9417;16.484;102.872;2023-03-26T05:09:20;23.00;;;19.17;;
18574;SDS011;9417;16.484;102.872;2023-03-26T05:11:46;25.25;;;20.30;;
18574;SDS011;9417;16.484;102.872;2023-03-26T05:13:55;21.33;;;18.88;;
18574;SDS011;9417;16.484;102.872;2023-03-26T05:16:04;29.92;;;21.33;;
18574;SDS011;9417;16.484;102.872;2023-03-26T05:18:15;40.22;;;27.02;;
18574;SDS011;9417;16.484;102.872;2023-03-26T05:20:26;24.80;;;19.00;;
18574;SDS011;9417;16.484;102.872;2023-03-26T05:22:35;24.63;;;19.50;;
18574;SDS011;9417;16.484;102.872;2023-03-26T05:24:53;23.40;;;18.80;;
18574;SDS011;9417;16.484;102.872;2023-03-26T05:27:00;22.63;;;18.50;;
18574;SDS011;9417;16.484;102.872;2023-03-26T05:29:09;20.23;;;16.33;;
18574;SDS011;9417;16.484;102.872;2023-03-26T05:33:31;16.23;;;14.32;;
18574;SDS011;9417;16.484;102.872;2023-03-26T05:35:45;23.95;;;15.38;;
18574;SDS011;9417;16.484;102.872;2023-03-26T05:37:53;17.33;;;15.02;;
18574;SDS011;9417;16.484;102.872;2023-03-26T05:40:00;21.05;;;16.52;;
18574;SDS011;9417;16.484;102.872;2023-03-26T05:42:22;17.92;;;14.68;;
18574;SDS011;9417;16.484;102.872;2023-03-26T05:44:49;17.67;;;14.88;;
18574;SDS011;9417;16.484;102.872;2023-03-26T05:47:03;16.58;;;14.80;;
18574;SDS011;9417;16.484;102.872;2023-03-26T05:49:10;17.45;;;14.73;;
18574;SDS011;9417;16.484;102.872;2023-03-26T05:51:17;20.10;;;16.35;;
18574;SDS011;9417;16.484;102.872;2023-03-26T05:53:35;18.88;;;15.60;;
18574;SDS011;9417;16.484;102.872;2023-03-26T05:55:54;21.20;;;15.27;;
18574;SDS011;9417;16.484;102.872;2023-03-26T05:58:24;17.88;;;15.27;;
18574;SDS011;9417;16.484;102.872;2023-03-26T06:00:55;19.98;;;15.63;;
18574;SDS011;9417;16.484;102.872;2023-03-26T06:03:17;17.63;;;14.98;;
18574;SDS011;9417;16.484;102.872;2023-03-26T06:05:51;16.63;;;14.52;;
18574;SDS011;9417;16.484;102.872;2023-03-26T06:08:14;21.30;;;14.82;;
18574;SDS011;9417;16.484;102.872;2023-03-26T06:12:32;19.15;;;14.90;;
18574;SDS011;9417;16.484;102.872;2023-03-26T06:14:41;17.75;;;14.63;;
18574;SDS011;9417;16.484;102.872;2023-03-26T06:17:00;22.02;;;15.10;;
18574;SDS011;9417;16.484;102.872;2023-03-26T06:19:29;17.02;;;14.48;;
18574;SDS011;9417;16.484;102.872;2023-03-26T06:21:45;17.27;;;14.70;;
18574;SDS011;9417;16.484;102.872;2023-03-26T06:23:58;21.60;;;15.25;;
18574;SDS011;9417;16.484;102.872;2023-03-26T06:26:21;19.08;;;15.70;;
18574;SDS011;9417;16.484;102.872;2023-03-26T06:28:52;17.98;;;14.80;;
18574;SDS011;9417;16.484;102.872;2023-03-26T06:31:21;19.83;;;15.45;;
18574;SDS011;9417;16.484;102.872;2023-03-26T06:33:45;19.15;;;16.17;;
18574;SDS011;9417;16.484;102.872;2023-03-26T06:35:54;20.98;;;16.77;;
18574;SDS011;9417;16.484;102.872;2023-03-26T06:38:01;18.73;;;16.73;;
18574;SDS011;9417;16.484;102.872;2023-03-26T06:40:10;21.35;;;16.20;;
18574;SDS011;9417;16.484;102.872;2023-03-26T06:42:29;21.13;;;16.02;;
18574;SDS011;9417;16.484;102.872;2023-03-26T06:45:14;18.70;;;15.55;;
18574;SDS011;9417;16.484;102.872;2023-03-26T06:47:39;21.35;;;15.95;;
18574;SDS011;9417;16.484;102.872;2023-03-26T06:50:13;22.38;;;16.88;;
18574;SDS011;9417;16.484;102.872;2023-03-26T06:52:48;18.15;;;15.88;;
18574;SDS011;9417;16.484;102.872;2023-03-26T06:55:16;17.67;;;15.32;;
18574;SDS011;9417;16.484;102.872;2023-03-26T06:57:40;21.05;;;16.13;;
18574;SDS011;9417;16.484;102.872;2023-03-26T07:00:06;20.58;;;16.02;;
18574;SDS011;9417;16.484;102.872;2023-03-26T07:02:32;19.15;;;15.48;;
18574;SDS011;9417;16.484;102.872;2023-03-26T07:04:58;20.83;;;15.32;;
18574;SDS011;9417;16.484;102.872;2023-03-26T07:07:28;21.55;;;14.90;;
18574;SDS011;9417;16.484;102.872;2023-03-26T07:10:06;19.35;;;15.88;;
18574;SDS011;9417;16.484;102.872;2023-03-26T07:12:46;19.70;;;16.45;;
18574;SDS011;9417;16.484;102.872;2023-03-26T07:15:13;17.80;;;15.35;;
18574;SDS011;9417;16.484;102.872;2023-03-26T07:20:01;20.33;;;15.50;;
18574;SDS011;9417;16.484;102.872;2023-03-26T07:22:10;18.35;;;15.10;;
18574;SDS011;9417;16.484;102.872;2023-03-26T07:24:36;19.80;;;15.43;;
18574;SDS011;9417;16.484;102.872;2023-03-26T07:27:00;21.45;;;15.50;;
18574;SDS011;9417;16.484;102.872;2023-03-26T07:29:15;22.38;;;15.38;;
18574;SDS011;9417;16.484;102.872;2023-03-26T07:32:01;17.40;;;15.07;;
18574;SDS011;9417;16.484;102.872;2023-03-26T07:34:31;18.80;;;14.40;;
18574;SDS011;9417;16.484;102.872;2023-03-26T07:37:07;16.65;;;14.48;;
18574;SDS011;9417;16.484;102.872;2023-03-26T07:39:48;16.65;;;14.80;;
18574;SDS011;9417;16.484;102.872;2023-03-26T07:42:25;19.83;;;15.63;;
18574;SDS011;9417;16.484;102.872;2023-03-26T07:44:57;19.02;;;15.30;;
18574;SDS011;9417;16.484;102.872;2023-03-26T07:47:31;19.98;;;16.13;;
18574;SDS011;9417;16.484;102.872;2023-03-26T07:49:50;17.30;;;15.23;;
18574;SDS011;9417;16.484;102.872;2023-03-26T07:52:20;21.02;;;15.60;;
18574;SDS011;9417;16.484;102.872;2023-03-26T07:54:39;20.02;;;15.98;;
18574;SDS011;9417;16.484;102.872;2023-03-26T07:57:05;17.92;;;16.02;;
18574;SDS011;9417;16.484;102.872;2023-03-26T07:59:44;22.13;;;16.05;;
18574;SDS011;9417;16.484;102.872;2023-03-26T08:02:22;20.33;;;15.88;;
18574;SDS011;9417;16.484;102.872;2023-03-26T08:05:04;23.15;;;16.30;;
18574;SDS011;9417;16.484;102.872;2023-03-26T08:07:31;19.05;;;16.02;;
18574;SDS011;9417;16.484;102.872;2023-03-26T08:10:00;19.08;;;16.58;;
18574;SDS011;9417;16.484;102.872;2023-03-26T08:12:28;19.08;;;17.02;;
18574;SDS011;9417;16.484;102.872;2023-03-26T08:14:46;22.55;;;16.45;;
18574;SDS011;9417;16.484;102.872;2023-03-26T08:17:01;21.58;;;17.17;;
18574;SDS011;9417;16.484;102.872;2023-03-26T08:19:20;22.88;;;18.38;;
18574;SDS011;9417;16.484;102.872;2023-03-26T08:21:38;22.40;;;17.63;;
18574;SDS011;9417;16.484;102.872;2023-03-26T08:23:53;21.23;;;17.15;;
18574;SDS011;9417;16.484;102.872;2023-03-26T08:26:08;21.88;;;19.48;;
18574;SDS011;9417;16.484;102.872;2023-03-26T08:28:22;22.15;;;18.63;;
18574;SDS011;9417;16.484;102.872;2023-03-26T08:30:39;19.63;;;17.35;;
18574;SDS011;9417;16.484;102.872;2023-03-26T08:32:48;22.85;;;19.60;;
18574;SDS011;9417;16.484;102.872;2023-03-26T08:35:00;26.05;;;18.98;;
18574;SDS011;9417;16.484;102.872;2023-03-26T08:37:08;20.73;;;18.17;;
18574;SDS011;9417;16.484;102.872;2023-03-26T08:39:15;24.95;;;17.92;;
18574;SDS011;9417;16.484;102.872;2023-03-26T08:47:03;21.75;;;17.98;;
18574;SDS011;9417;16.484;102.872;2023-03-26T08:50:01;25.77;;;16.55;;
18574;SDS011;9417;16.484;102.872;2023-03-26T08:55:16;21.75;;;18.08;;
18574;SDS011;9417;16.484;102.872;2023-03-26T09:03:09;19.58;;;17.48;;
18574;SDS011;9417;16.484;102.872;2023-03-26T09:08:21;22.08;;;17.85;;
18574;SDS011;9417;16.484;102.872;2023-03-26T09:11:15;23.10;;;18.25;;
18574;SDS011;9417;16.484;102.872;2023-03-26T09:14:01;21.17;;;18.80;;
18574;SDS011;9417;16.484;102.872;2023-03-26T09:19:20;22.55;;;18.92;;
18574;SDS011;9417;16.484;102.872;2023-03-26T09:21:54;23.58;;;19.25;;
18574;SDS011;9417;16.484;102.872;2023-03-26T09:24:35;21.98;;;18.42;;
18574;SDS011;9417;16.484;102.872;2023-03-26T09:27:04;19.00;;;17.00;;
18574;SDS011;9417;16.484;102.872;2023-03-26T09:29:30;21.45;;;17.55;;
18574;SDS011;9417;16.484;102.872;2023-03-26T09:32:07;18.70;;;16.52;;
18574;SDS011;9417;16.484;102.872;2023-03-26T09:37:34;18.48;;;16.38;;
18574;SDS011;9417;16.484;102.872;2023-03-26T09:40:07;20.92;;;18.00;;
18574;SDS011;9417;16.484;102.872;2023-03-26T09:42:22;21.05;;;18.25;;
18574;SDS011;9417;16.484;102.872;2023-03-26T09:47:28;19.75;;;17.65;;
18574;SDS011;9417;16.484;102.872;2023-03-26T09:49:48;24.02;;;17.52;;
18574;SDS011;9417;16.484;102.872;2023-03-26T09:52:16;22.38;;;17.35;;
18574;SDS011;9417;16.484;102.872;2023-03-26T09:57:31;18.67;;;15.60;;
18574;SDS011;9417;16.484;102.872;2023-03-26T10:00:08;19.13;;;16.02;;
18574;SDS011;9417;16.484;102.872;2023-03-26T10:02:29;18.92;;;15.65;;
18574;SDS011;9417;16.484;102.872;2023-03-26T10:04:55;16.83;;;14.63;;
18574;SDS011;9417;16.484;102.872;2023-03-26T10:07:32;18.60;;;14.70;;
18574;SDS011;9417;16.484;102.872;2023-03-26T10:09:52;21.65;;;15.82;;
18574;SDS011;9417;16.484;102.872;2023-03-26T10:12:08;18.02;;;16.08;;
18574;SDS011;9417;16.484;102.872;2023-03-26T10:14:21;17.95;;;15.75;;
18574;SDS011;9417;16.484;102.872;2023-03-26T10:16:40;18.15;;;14.55;;
18574;SDS011;9417;16.484;102.872;2023-03-26T10:19:00;17.33;;;14.93;;
18574;SDS011;9417;16.484;102.872;2023-03-26T10:21:17;19.35;;;14.18;;
18574;SDS011;9417;16.484;102.872;2023-03-26T10:23:40;17.27;;;15.13;;
18574;SDS011;9417;16.484;102.872;2023-03-26T10:26:02;16.85;;;14.18;;
18574;SDS011;9417;16.484;102.872;2023-03-26T10:30:53;19.95;;;14.52;;
18574;SDS011;9417;16.484;102.872;2023-03-26T10:33:12;17.30;;;14.50;;
18574;SDS011;9417;16.484;102.872;2023-03-26T10:35:33;17.73;;;15.38;;
18574;SDS011;9417;16.484;102.872;2023-03-26T10:37:54;17.77;;;15.23;;
18574;SDS011;9417;16.484;102.872;2023-03-26T10:40:18;19.85;;;15.13;;
18574;SDS011;9417;16.484;102.872;2023-03-26T10:42:34;18.85;;;16.40;;
18574;SDS011;9417;16.484;102.872;2023-03-26T10:45:11;19.65;;;16.17;;
18574;SDS011;9417;16.484;102.872;2023-03-26T10:47:58;21.90;;;15.40;;
18574;SDS011;9417;16.484;102.872;2023-03-26T10:50:39;17.77;;;15.05;;
18574;SDS011;9417;16.484;102.872;2023-03-26T10:52:58;21.00;;;15.80;;
18574;SDS011;9417;16.484;102.872;2023-03-26T10:55:09;19.80;;;15.85;;
18574;SDS011;9417;16.484;102.872;2023-03-26T10:57:34;19.20;;;15.65;;
18574;SDS011;9417;16.484;102.872;2023-03-26T10:59:45;21.05;;;15.35;;
18574;SDS011;9417;16.484;102.872;2023-03-26T11:01:54;17.75;;;15.90;;
18574;SDS011;9417;16.484;102.872;2023-03-26T11:04:14;18.58;;;15.32;;
18574;SDS011;9417;16.484;102.872;2023-03-26T11:06:31;19.52;;;16.35;;
18574;SDS011;9417;16.484;102.872;2023-03-26T11:08:47;23.35;;;16.33;;
18574;SDS011;9417;16.484;102.872;2023-03-26T11:11:00;18.58;;;16.30;;
18574;SDS011;9417;16.484;102.872;2023-03-26T11:13:21;20.67;;;16.92;;
18574;SDS011;9417;16.484;102.872;2023-03-26T11:15:40;21.35;;;17.30;;
18574;SDS011;9417;16.484;102.872;2023-03-26T11:17:54;23.17;;;16.75;;
18574;SDS011;9417;16.484;102.872;2023-03-26T11:20:12;19.48;;;16.58;;
18574;SDS011;9417;16.484;102.872;2023-03-26T11:22:26;21.02;;;16.55;;
18574;SDS011;9417;16.484;102.872;2023-03-26T11:25:02;21.13;;;17.38;;
18574;SDS011;9417;16.484;102.872;2023-03-26T11:27:34;22.92;;;16.77;;
18574;SDS011;9417;16.484;102.872;2023-03-26T11:29:52;21.45;;;16.58;;
18574;SDS011;9417;16.484;102.872;2023-03-26T11:32:09;21.42;;;17.50;;
18574;SDS011;9417;16.484;102.872;2023-03-26T11:34:20;21.63;;;17.95;;
18574;SDS011;9417;16.484;102.872;2023-03-26T11:36:33;20.85;;;17.73;;
18574;SDS011;9417;16.484;102.872;2023-03-26T11:38:44;22.67;;;17.05;;
18574;SDS011;9417;16.484;102.872;2023-03-26T11:40:59;25.35;;;17.52;;
18574;SDS011;9417;16.484;102.872;2023-03-26T11:43:37;22.63;;;17.80;;
18574;SDS011;9417;16.484;102.872;2023-03-26T11:45:46;25.52;;;18.40;;
18574;SDS011;9417;16.484;102.872;2023-03-26T11:47:56;26.75;;;20.45;;
18574;SDS011;9417;16.484;102.872;2023-03-26T11:50:14;26.92;;;20.65;;
18574;SDS011;9417;16.484;102.872;2023-03-26T11:52:26;27.33;;;19.48;;
18574;SDS011;9417;16.484;102.872;2023-03-26T11:54:34;24.88;;;19.85;;
18574;SDS011;9417;16.484;102.872;2023-03-26T11:56:42;25.50;;;19.70;;
18574;SDS011;9417;16.484;102.872;2023-03-26T11:59:08;27.35;;;18.90;;
18574;SDS011;9417;16.484;102.872;2023-03-26T12:01:24;30.25;;;20.70;;
18574;SDS011;9417;16.484;102.872;2023-03-26T12:03:33;27.98;;;21.40;;
18574;SDS011;9417;16.484;102.872;2023-03-26T12:05:45;28.50;;;20.13;;
18574;SDS011;9417;16.484;102.872;2023-03-26T12:07:54;27.52;;;20.58;;
18574;SDS011;9417;16.484;102.872;2023-03-26T12:10:03;29.15;;;20.38;;
18574;SDS011;9417;16.484;102.872;2023-03-26T12:12:21;26.88;;;20.30;;
18574;SDS011;9417;16.484;102.872;2023-03-26T12:14:33;27.33;;;20.88;;
18574;SDS011;9417;16.484;102.872;2023-03-26T12:16:43;24.80;;;20.75;;
18574;SDS011;9417;16.484;102.872;2023-03-26T12:19:04;27.40;;;20.88;;
18574;SDS011;9417;16.484;102.872;2023-03-26T12:21:23;30.08;;;21.08;;
18574;SDS011;9417;16.484;102.872;2023-03-26T12:23:35;27.13;;;21.10;;
18574;SDS011;9417;16.484;102.872;2023-03-26T12:25:47;26.23;;;20.42;;
18574;SDS011;9417;16.484;102.872;2023-03-26T12:28:17;27.00;;;20.45;;
18574;SDS011;9417;16.484;102.872;2023-03-26T12:30:25;27.17;;;20.45;;
18574;SDS011;9417;16.484;102.872;2023-03-26T12:32:37;27.02;;;20.75;;
18574;SDS011;9417;16.484;102.872;2023-03-26T12:34:48;29.02;;;22.13;;
18574;SDS011;9417;16.484;102.872;2023-03-26T12:36:56;34.05;;;22.20;;
18574;SDS011;9417;16.484;102.872;2023-03-26T12:39:20;29.02;;;21.25;;
18574;SDS011;9417;16.484;102.872;2023-03-26T12:41:53;30.50;;;22.95;;
18574;SDS011;9417;16.484;102.872;2023-03-26T12:44:24;31.52;;;22.00;;
18574;SDS011;9417;16.484;102.872;2023-03-26T12:47:05;34.15;;;22.70;;
18574;SDS011;9417;16.484;102.872;2023-03-26T12:49:36;33.65;;;22.33;;
18574;SDS011;9417;16.484;102.872;2023-03-26T12:51:46;35.03;;;23.17;;
18574;SDS011;9417;16.484;102.872;2023-03-26T12:53:58;30.88;;;22.08;;
18574;SDS011;9417;16.484;102.872;2023-03-26T12:56:22;31.80;;;22.77;;
18574;SDS011;9417;16.484;102.872;2023-03-26T12:58:46;31.70;;;23.25;;
18574;SDS011;9417;16.484;102.872;2023-03-26T13:01:07;31.98;;;23.00;;
18574;SDS011;9417;16.484;102.872;2023-03-26T13:03:26;35.05;;;23.15;;
18574;SDS011;9417;16.484;102.872;2023-03-26T13:08:04;28.20;;;21.63;;
18574;SDS011;9417;16.484;102.872;2023-03-26T13:12:56;29.67;;;22.40;;
18574;SDS011;9417;16.484;102.872;2023-03-26T13:15:15;29.15;;;22.00;;
18574;SDS011;9417;16.484;102.872;2023-03-26T13:17:28;26.70;;;21.23;;
18574;SDS011;9417;16.484;102.872;2023-03-26T13:19:41;34.17;;;23.02;;
18574;SDS011;9417;16.484;102.872;2023-03-26T13:22:01;29.27;;;21.95;;
18574;SDS011;9417;16.484;102.872;2023-03-26T13:24:24;33.45;;;22.90;;
18574;SDS011;9417;16.484;102.872;2023-03-26T13:26:46;27.38;;;21.67;;
18574;SDS011;9417;16.484;102.872;2023-03-26T13:29:04;32.97;;;21.77;;
18574;SDS011;9417;16.484;102.872;2023-03-26T13:31:19;32.58;;;21.40;;
18574;SDS011;9417;16.484;102.872;2023-03-26T13:33:32;33.63;;;20.45;;
18574;SDS011;9417;16.484;102.872;2023-03-26T13:35:46;29.52;;;21.42;;
18574;SDS011;9417;16.484;102.872;2023-03-26T13:38:21;25.63;;;20.10;;
18574;SDS011;9417;16.484;102.872;2023-03-26T13:40:36;27.85;;;21.63;;
18574;SDS011;9417;16.484;102.872;2023-03-26T13:42:59;34.65;;;20.98;;
18574;SDS011;9417;16.484;102.872;2023-03-26T13:45:23;29.27;;;21.50;;
18574;SDS011;9417;16.484;102.872;2023-03-26T13:47:41;30.80;;;20.73;;
18574;SDS011;9417;16.484;102.872;2023-03-26T13:49:52;37.30;;;22.75;;
18574;SDS011;9417;16.484;102.872;2023-03-26T13:52:05;29.80;;;21.55;;
18574;SDS011;9417;16.484;102.872;2023-03-26T13:54:19;35.33;;;22.77;;
18574;SDS011;9417;16.484;102.872;2023-03-26T13:56:34;35.83;;;23.08;;
18574;SDS011;9417;16.484;102.872;2023-03-26T13:58:47;36.38;;;24.27;;
18574;SDS011;9417;16.484;102.872;2023-03-26T14:00:57;34.45;;;24.58;;
18574;SDS011;9417;16.484;102.872;2023-03-26T14:03:11;37.00;;;24.38;;
18574;SDS011;9417;16.484;102.872;2023-03-26T14:05:25;36.50;;;24.65;;
18574;SDS011;9417;16.484;102.872;2023-03-26T14:07:40;31.27;;;24.00;;
18574;SDS011;9417;16.484;102.872;2023-03-26T14:09:53;35.33;;;23.58;;
18574;SDS011;9417;16.484;102.872;2023-03-26T14:12:19;34.80;;;24.27;;
18574;SDS011;9417;16.484;102.872;2023-03-26T14:14:33;30.90;;;22.88;;
18574;SDS011;9417;16.484;102.872;2023-03-26T14:16:46;32.05;;;23.83;;
18574;SDS011;9417;16.484;102.872;2023-03-26T14:18:57;34.83;;;24.38;;
18574;SDS011;9417;16.484;102.872;2023-03-26T14:21:31;31.20;;;24.17;;
18574;SDS011;9417;16.484;102.872;2023-03-26T14:26:56;37.58;;;24.10;;
18574;SDS011;9417;16.484;102.872;2023-03-26T14:29:33;34.40;;;23.73;;
18574;SDS011;9417;16.484;102.872;2023-03-26T14:34:35;32.10;;;24.42;;
18574;SDS011;9417;16.484;102.872;2023-03-26T14:37:06;40.25;;;25.92;;
18574;SDS011;9417;16.484;102.872;2023-03-26T14:39:31;37.85;;;24.88;;
18574;SDS011;9417;16.484;102.872;2023-03-26T14:41:57;37.17;;;26.00;;
18574;SDS011;9417;16.484;102.872;2023-03-26T14:44:16;35.00;;;26.20;;
18574;SDS011;9417;16.484;102.872;2023-03-26T14:49:40;36.20;;;25.45;;